Terminal Aerodrome Forecast
Issued by NWS New Orleans/Baton Rouge, LA

Home | Current Version | Previous Version | Text Only | Print | Product List | Glossary On
Versions: 1 2 3 4 5 6 7 8 9 10 11 12 13 14 15 16 17 18 19 20 21 22 23 24 25 26
000
FTUS44 KLIX 271720
TAFNEW
TAF
KNEW 271720Z 2718/2818 03009KT P6SM SKC
     FM272300 03008KT P6SM VCTS SCT040CB BKN100
     FM280200 02008KT P6SM FEW040 SCT110
     FM280600 36012KT P6SM FEW035 SCT100 PROB30 2806/2810 4SM -SHRA
      BKN035 BKN040
     FM281000 36012KT P6SM BKN035 BKN100 PROB30 2810/2814 4SM -SHRA
      OVC025=

USA.gov is the U.S. government's official web portal to all federal, state and local government web resources and services.